Time;durP1;ratioP1;P1;durP2;ratioP2;P2;SDS_P1;SDS_P2;PMS_P1;PMS_P2;Temp;Humidity;BMP_temperature;BMP_pressure;BME280_temperature;BME280_humidity;BME280_pressure;Samples;Min_cycle;Max_cycle;Signal;HPM_P1;HPM_P2
2023/10/22 00:01:15;;;;;;;2.83;0.60;;;;;;;;;;5060204;28;20869;-65
2023/10/22 00:03:41;;;;;;;0.38;0.22;;;;;;;;;;5064235;28;20806;-65
2023/10/22 00:06:06;;;;;;;0.90;0.22;;;;;;;;;;5089572;28;20061;-65
2023/10/22 00:08:31;;;;;;;2.10;0.50;;;;;;;;;;5091854;28;20490;-65
2023/10/22 00:10:57;;;;;;;0.83;0.30;;;;;;;;;;5091915;28;20032;-65
2023/10/22 00:13:22;;;;;;;2.38;0.50;;;;;;;;;;5092612;28;20384;-65
2023/10/22 00:15:47;;;;;;;1.27;0.38;;;;;;;;;;5091831;28;20028;-65
2023/10/22 00:18:13;;;;;;;2.45;0.75;;;;;;;;;;5091261;28;20108;-64
2023/10/22 00:20:38;;;;;;;1.70;0.37;;;;;;;;;;5091400;28;20485;-65
2023/10/22 00:23:03;;;;;;;1.33;0.47;;;;;;;;;;5088426;28;20773;-65
2023/10/22 00:25:28;;;;;;;1.25;0.30;;;;;;;;;;5078637;28;20719;-65
2023/10/22 00:27:55;;;;;;;0.82;0.17;;;;;;;;;;5062896;28;20135;-65
2023/10/22 00:30:20;;;;;;;1.95;0.43;;;;;;;;;;5075573;28;20062;-65
2023/10/22 00:32:46;;;;;;;1.77;0.55;;;;;;;;;;5079981;28;20132;-65
2023/10/22 00:35:12;;;;;;;0.82;0.20;;;;;;;;;;5081368;28;20030;-65
2023/10/22 00:37:37;;;;;;;1.67;0.38;;;;;;;;;;5077070;28;20059;-64
2023/10/22 00:40:03;;;;;;;0.85;0.32;;;;;;;;;;5089192;28;20546;-65
2023/10/22 00:42:28;;;;;;;1.30;0.35;;;;;;;;;;5082162;28;20027;-65
2023/10/22 00:44:53;;;;;;;4.05;0.30;;;;;;;;;;5090878;28;20123;-66
2023/10/22 00:47:19;;;;;;;0.83;0.37;;;;;;;;;;5069925;28;20892;-65
2023/10/22 00:49:45;;;;;;;1.15;0.25;;;;;;;;;;5052873;28;20642;-64
2023/10/22 00:52:11;;;;;;;0.70;0.20;;;;;;;;;;5068717;28;20089;-65
2023/10/22 00:54:36;;;;;;;1.00;0.32;;;;;;;;;;5065894;28;20030;-65
2023/10/22 00:57:02;;;;;;;1.75;0.40;;;;;;;;;;5079879;28;20024;-65
2023/10/22 00:59:27;;;;;;;0.80;0.28;;;;;;;;;;5089016;28;20016;-65
2023/10/22 01:01:52;;;;;;;1.10;0.30;;;;;;;;;;5087919;28;20073;-65
2023/10/22 01:04:18;;;;;;;1.63;0.43;;;;;;;;;;5079382;28;20355;-65
2023/10/22 01:06:43;;;;;;;0.90;0.28;;;;;;;;;;5084609;28;20077;-65
2023/10/22 01:09:11;;;;;;;1.25;0.30;;;;;;;;;;5087999;28;20040;-65
2023/10/22 01:11:38;;;;;;;1.70;0.40;;;;;;;;;;5090845;28;20054;-65
2023/10/22 01:14:03;;;;;;;0.60;0.20;;;;;;;;;;5091700;28;20077;-65
2023/10/22 01:16:28;;;;;;;0.95;0.30;;;;;;;;;;5090723;28;20026;-65
2023/10/22 01:18:53;;;;;;;3.07;0.43;;;;;;;;;;5079021;28;20062;-65
2023/10/22 01:21:19;;;;;;;0.97;0.20;;;;;;;;;;5074949;28;20272;-65
2023/10/22 01:23:44;;;;;;;0.97;0.40;;;;;;;;;;5072294;28;20270;-69
2023/10/22 01:26:09;;;;;;;0.10;0.00;;;;;;;;;;5075940;28;20273;-65
2023/10/22 01:28:35;;;;;;;0.38;0.10;;;;;;;;;;5074775;28;20274;-65
2023/10/22 01:31:00;;;;;;;0.80;0.20;;;;;;;;;;5079421;28;20057;-65
2023/10/22 01:33:26;;;;;;;0.57;0.20;;;;;;;;;;5094636;28;20103;-66
2023/10/22 01:35:51;;;;;;;1.50;0.50;;;;;;;;;;5094540;28;20097;-65
2023/10/22 01:38:16;;;;;;;1.27;0.30;;;;;;;;;;5094902;28;20028;-65
2023/10/22 01:40:42;;;;;;;2.53;0.30;;;;;;;;;;5092732;28;20028;-66
2023/10/22 01:43:07;;;;;;;2.47;0.30;;;;;;;;;;5087743;28;20020;-66
2023/10/22 01:45:32;;;;;;;0.77;0.30;;;;;;;;;;5078058;28;20025;-66
2023/10/22 01:47:58;;;;;;;4.10;0.67;;;;;;;;;;5072378;28;20553;-65
2023/10/22 01:50:23;;;;;;;2.67;0.35;;;;;;;;;;5069052;28;20946;-65
2023/10/22 01:52:48;;;;;;;0.98;0.20;;;;;;;;;;5077487;28;20031;-66
2023/10/22 01:55:14;;;;;;;1.52;0.40;;;;;;;;;;5075297;28;20020;-66
2023/10/22 01:57:39;;;;;;;0.60;0.20;;;;;;;;;;5077063;28;20039;-66
2023/10/22 02:00:05;;;;;;;0.85;0.35;;;;;;;;;;5067692;28;20028;-66
2023/10/22 02:02:30;;;;;;;0.63;0.30;;;;;;;;;;5069849;28;20036;-66
2023/10/22 02:04:55;;;;;;;1.23;0.27;;;;;;;;;;5074385;28;20471;-66
2023/10/22 02:07:21;;;;;;;0.38;0.20;;;;;;;;;;5065406;28;21224;-65
2023/10/22 02:09:46;;;;;;;0.53;0.10;;;;;;;;;;5085393;28;20027;-66
2023/10/22 02:12:11;;;;;;;0.50;0.20;;;;;;;;;;5091962;28;20273;-66
2023/10/22 02:14:36;;;;;;;0.63;0.20;;;;;;;;;;5088771;28;20304;-66
2023/10/22 02:17:02;;;;;;;0.43;0.17;;;;;;;;;;5084508;28;20107;-66
2023/10/22 02:19:28;;;;;;;0.30;0.10;;;;;;;;;;5093601;28;20481;-66
2023/10/22 02:21:53;;;;;;;2.07;0.30;;;;;;;;;;5082922;28;20845;-66
2023/10/22 02:24:18;;;;;;;1.17;0.30;;;;;;;;;;5086516;28;20756;-65
2023/10/22 02:26:44;;;;;;;0.98;0.20;;;;;;;;;;5090183;28;20020;-65
2023/10/22 02:29:09;;;;;;;0.67;0.10;;;;;;;;;;5084701;28;20170;-65
2023/10/22 02:31:34;;;;;;;0.93;0.17;;;;;;;;;;5092705;28;20273;-65
2023/10/22 02:34:06;;;;;;;0.80;0.20;;;;;;;;;;5093745;28;20297;-66
2023/10/22 02:36:32;;;;;;;0.52;0.17;;;;;;;;;;5092983;28;20158;-65
2023/10/22 02:38:57;;;;;;;0.75;0.40;;;;;;;;;;5088725;28;20126;-66
2023/10/22 02:41:22;;;;;;;0.32;0.15;;;;;;;;;;5080047;28;20035;-66
2023/10/22 02:43:48;;;;;;;0.73;0.20;;;;;;;;;;5085204;28;20036;-65
2023/10/22 02:46:14;;;;;;;0.60;0.30;;;;;;;;;;5084158;28;20313;-65
2023/10/22 02:48:39;;;;;;;0.30;0.10;;;;;;;;;;5060778;28;21039;-66
2023/10/22 02:51:04;;;;;;;1.53;0.50;;;;;;;;;;5069321;28;20027;-66
2023/10/22 02:53:29;;;;;;;0.70;0.30;;;;;;;;;;5084393;28;20276;-65
2023/10/22 02:55:59;;;;;;;1.20;0.20;;;;;;;;;;5080988;28;20085;-65
2023/10/22 02:58:24;;;;;;;1.17;0.20;;;;;;;;;;5091642;28;20035;-65
2023/10/22 03:00:50;;;;;;;0.53;0.27;;;;;;;;;;5082906;28;20039;-65
2023/10/22 03:03:15;;;;;;;1.47;0.47;;;;;;;;;;5075828;28;20274;-66
2023/10/22 03:05:40;;;;;;;0.50;0.27;;;;;;;;;;5083418;28;20286;-66
2023/10/22 03:08:05;;;;;;;1.03;0.40;;;;;;;;;;5083041;28;20285;-66
2023/10/22 03:10:30;;;;;;;0.60;0.20;;;;;;;;;;5093464;28;20357;-66
2023/10/22 03:12:58;;;;;;;0.85;0.30;;;;;;;;;;5092018;28;20301;-66
2023/10/22 03:15:23;;;;;;;1.40;0.20;;;;;;;;;;5093405;28;20044;-67
2023/10/22 03:17:48;;;;;;;1.20;0.20;;;;;;;;;;5092702;28;20067;-66
2023/10/22 03:20:16;;;;;;;0.88;0.32;;;;;;;;;;5093422;28;20281;-66
2023/10/22 03:22:41;;;;;;;0.82;0.20;;;;;;;;;;5092906;28;20053;-66
2023/10/22 03:25:07;;;;;;;0.67;0.30;;;;;;;;;;5083935;28;20475;-66
2023/10/22 03:27:33;;;;;;;2.42;0.40;;;;;;;;;;5086595;28;20254;-65
2023/10/22 03:29:59;;;;;;;1.13;0.45;;;;;;;;;;5083188;28;20096;-65
2023/10/22 03:32:24;;;;;;;1.38;0.50;;;;;;;;;;5085862;28;20101;-66
2023/10/22 03:34:49;;;;;;;2.50;0.50;;;;;;;;;;5075037;28;20399;-66
2023/10/22 03:37:14;;;;;;;0.70;0.30;;;;;;;;;;5082522;28;20028;-65
2023/10/22 03:39:41;;;;;;;0.50;0.20;;;;;;;;;;5085478;28;20354;-65
2023/10/22 03:42:06;;;;;;;0.65;0.30;;;;;;;;;;5073544;28;20280;-65
2023/10/22 03:44:31;;;;;;;0.93;0.30;;;;;;;;;;5077188;28;20028;-65
2023/10/22 03:46:56;;;;;;;1.53;0.40;;;;;;;;;;5062304;28;20036;-66
2023/10/22 03:49:22;;;;;;;1.07;0.37;;;;;;;;;;5086659;28;20373;-66
2023/10/22 03:51:47;;;;;;;2.73;0.70;;;;;;;;;;5065788;28;20381;-65
2023/10/22 03:54:12;;;;;;;1.30;0.43;;;;;;;;;;5080467;28;20428;-65
2023/10/22 03:56:37;;;;;;;2.45;0.60;;;;;;;;;;5088000;28;20493;-65
2023/10/22 03:59:03;;;;;;;1.70;0.63;;;;;;;;;;5087445;28;20035;-65
2023/10/22 04:01:28;;;;;;;2.38;1.00;;;;;;;;;;5060899;28;20269;-65
2023/10/22 04:03:53;;;;;;;1.98;0.75;;;;;;;;;;5055247;28;20028;-65
2023/10/22 04:06:18;;;;;;;1.92;0.93;;;;;;;;;;5082320;28;20482;-65
2023/10/22 04:08:44;;;;;;;1.53;0.63;;;;;;;;;;5071452;28;20020;-65
2023/10/22 04:11:09;;;;;;;0.98;0.38;;;;;;;;;;5079820;28;20266;-65
2023/10/22 04:13:34;;;;;;;2.13;0.60;;;;;;;;;;5081086;28;20382;-65
2023/10/22 04:15:59;;;;;;;2.15;0.60;;;;;;;;;;5072759;28;20078;-65
2023/10/22 04:18:25;;;;;;;2.20;0.70;;;;;;;;;;5078029;28;20036;-65
2023/10/22 04:20:50;;;;;;;1.33;0.40;;;;;;;;;;5078282;28;20490;-65
2023/10/22 04:23:16;;;;;;;1.33;0.55;;;;;;;;;;5076080;28;20043;-66
2023/10/22 04:25:43;;;;;;;1.95;0.65;;;;;;;;;;5081374;28;20870;-65
2023/10/22 04:28:09;;;;;;;1.17;0.38;;;;;;;;;;5069017;28;20069;-66
2023/10/22 04:30:37;;;;;;;3.10;0.70;;;;;;;;;;5074469;28;20016;-66
2023/10/22 04:33:03;;;;;;;0.82;0.35;;;;;;;;;;5091482;28;20016;-66
2023/10/22 04:35:28;;;;;;;1.60;0.52;;;;;;;;;;5092051;28;20069;-66
2023/10/22 04:37:54;;;;;;;0.75;0.30;;;;;;;;;;5073826;28;20101;-66
2023/10/22 04:40:20;;;;;;;1.55;0.60;;;;;;;;;;5089112;28;20024;-66
2023/10/22 04:42:45;;;;;;;0.88;0.32;;;;;;;;;;5085495;28;20051;-66
2023/10/22 04:45:10;;;;;;;1.57;0.50;;;;;;;;;;5067702;28;20112;-66
2023/10/22 04:47:36;;;;;;;0.47;0.30;;;;;;;;;;5078033;28;20334;-66
2023/10/22 04:50:01;;;;;;;0.52;0.30;;;;;;;;;;5062887;28;20386;-66
2023/10/22 04:52:33;;;;;;;1.35;0.50;;;;;;;;;;5063855;28;20034;-66
2023/10/22 04:54:59;;;;;;;1.55;0.30;;;;;;;;;;5074224;28;20062;-66
2023/10/22 04:57:26;;;;;;;1.35;0.40;;;;;;;;;;5084872;28;20044;-65
2023/10/22 04:59:51;;;;;;;1.45;0.40;;;;;;;;;;5080051;28;20028;-66
2023/10/22 05:02:16;;;;;;;1.58;0.35;;;;;;;;;;5085878;28;20053;-66
2023/10/22 05:04:44;;;;;;;3.42;0.40;;;;;;;;;;5085032;28;20047;-66
2023/10/22 05:07:09;;;;;;;3.53;0.60;;;;;;;;;;5088250;28;20075;-66
2023/10/22 05:09:35;;;;;;;1.40;0.50;;;;;;;;;;5087138;28;20467;-66
2023/10/22 05:12:00;;;;;;;0.83;0.20;;;;;;;;;;5080674;28;20028;-66
2023/10/22 05:14:25;;;;;;;1.08;0.55;;;;;;;;;;5078795;28;20273;-66
2023/10/22 05:16:51;;;;;;;2.07;0.30;;;;;;;;;;5079412;28;20479;-66
2023/10/22 05:19:17;;;;;;;0.95;0.20;;;;;;;;;;5064884;28;20443;-66
2023/10/22 05:21:42;;;;;;;1.10;0.40;;;;;;;;;;5081272;28;20023;-66
2023/10/22 05:24:09;;;;;;;0.73;0.37;;;;;;;;;;5076824;28;20339;-66
2023/10/22 05:26:34;;;;;;;1.05;0.35;;;;;;;;;;5079939;28;20282;-66
2023/10/22 05:29:00;;;;;;;1.10;0.40;;;;;;;;;;5082048;28;20046;-71
2023/10/22 05:31:25;;;;;;;0.95;0.20;;;;;;;;;;5082254;28;20278;-65
2023/10/22 05:33:50;;;;;;;1.43;0.60;;;;;;;;;;5084180;28;20078;-65
2023/10/22 05:36:16;;;;;;;1.45;0.50;;;;;;;;;;5074621;28;20278;-66
2023/10/22 05:38:42;;;;;;;1.42;0.50;;;;;;;;;;5075469;28;20028;-65
2023/10/22 05:41:08;;;;;;;1.23;0.47;;;;;;;;;;5082597;28;20127;-66
2023/10/22 05:43:33;;;;;;;0.85;0.30;;;;;;;;;;5086492;28;20111;-66
2023/10/22 05:45:59;;;;;;;0.83;0.20;;;;;;;;;;5085033;28;20431;-66
2023/10/22 05:48:24;;;;;;;1.50;0.30;;;;;;;;;;5082489;28;20850;-65
2023/10/22 05:50:50;;;;;;;1.40;0.40;;;;;;;;;;5071903;28;20696;-65
2023/10/22 05:53:16;;;;;;;1.13;0.35;;;;;;;;;;5080869;28;20043;-65
2023/10/22 05:55:41;;;;;;;1.83;0.73;;;;;;;;;;5081455;28;20028;-65
2023/10/22 05:58:06;;;;;;;1.23;0.43;;;;;;;;;;5083818;28;20500;-65
2023/10/22 06:00:31;;;;;;;1.92;0.57;;;;;;;;;;5082472;28;20278;-65
2023/10/22 06:02:57;;;;;;;1.35;0.47;;;;;;;;;;5081505;28;20040;-65
2023/10/22 06:05:23;;;;;;;1.50;0.68;;;;;;;;;;5080871;28;20047;-65
2023/10/22 06:07:48;;;;;;;1.20;0.32;;;;;;;;;;5071458;28;20172;-65
2023/10/22 06:10:14;;;;;;;1.17;0.40;;;;;;;;;;5081477;28;20129;-66
2023/10/22 06:12:39;;;;;;;2.30;0.68;;;;;;;;;;5084207;28;20035;-65
2023/10/22 06:15:04;;;;;;;1.43;0.60;;;;;;;;;;5082788;28;20050;-65
2023/10/22 06:17:30;;;;;;;2.85;0.52;;;;;;;;;;5081233;28;20632;-65
2023/10/22 06:19:56;;;;;;;1.77;0.63;;;;;;;;;;5082177;28;20357;-65
2023/10/22 06:22:22;;;;;;;0.90;0.38;;;;;;;;;;5082299;28;20036;-65
2023/10/22 06:24:47;;;;;;;1.70;0.55;;;;;;;;;;5072837;28;20039;-65
2023/10/22 06:27:12;;;;;;;1.05;0.30;;;;;;;;;;5079123;28;20352;-65
2023/10/22 06:29:38;;;;;;;1.17;0.40;;;;;;;;;;5067055;28;20031;-67
2023/10/22 06:32:03;;;;;;;1.65;0.45;;;;;;;;;;5045435;28;20274;-66
2023/10/22 06:34:28;;;;;;;1.23;0.50;;;;;;;;;;5037432;28;20073;-66
2023/10/22 06:36:55;;;;;;;2.17;0.55;;;;;;;;;;5050306;28;20793;-66
2023/10/22 06:39:21;;;;;;;0.98;0.43;;;;;;;;;;5046077;28;20039;-66
2023/10/22 06:41:46;;;;;;;1.50;0.40;;;;;;;;;;5049876;28;20024;-66
2023/10/22 06:44:11;;;;;;;1.23;0.38;;;;;;;;;;5057210;28;20417;-66
2023/10/22 06:46:36;;;;;;;1.25;0.50;;;;;;;;;;5092616;28;20034;-66
2023/10/22 06:49:02;;;;;;;1.80;0.50;;;;;;;;;;5089182;28;20020;-66
2023/10/22 06:51:27;;;;;;;1.65;0.45;;;;;;;;;;5091349;28;20028;-66
2023/10/22 06:53:52;;;;;;;0.63;0.30;;;;;;;;;;5092219;28;20020;-66
2023/10/22 06:56:17;;;;;;;1.30;0.50;;;;;;;;;;5092877;28;20316;-66
2023/10/22 06:58:44;;;;;;;1.10;0.43;;;;;;;;;;5090172;28;20390;-66
2023/10/22 07:01:10;;;;;;;1.38;0.50;;;;;;;;;;5092327;28;20274;-66
2023/10/22 07:03:36;;;;;;;3.67;0.60;;;;;;;;;;5092705;28;20016;-66
2023/10/22 07:06:02;;;;;;;1.50;0.60;;;;;;;;;;5091331;28;20036;-66
2023/10/22 07:08:28;;;;;;;1.60;0.55;;;;;;;;;;5093380;28;20374;-66
2023/10/22 07:10:53;;;;;;;3.25;1.00;;;;;;;;;;5091944;28;20494;-66
2023/10/22 07:13:20;;;;;;;1.70;0.60;;;;;;;;;;5092860;28;20056;-66
2023/10/22 07:15:45;;;;;;;1.00;0.50;;;;;;;;;;5093237;28;20290;-66
2023/10/22 07:18:11;;;;;;;3.75;0.50;;;;;;;;;;5092907;28;20387;-66
2023/10/22 07:20:36;;;;;;;1.47;0.60;;;;;;;;;;5093252;28;20146;-66
2023/10/22 07:23:01;;;;;;;0.97;0.30;;;;;;;;;;5093152;28;20302;-66
2023/10/22 07:25:27;;;;;;;0.65;0.30;;;;;;;;;;5093041;28;20274;-66
2023/10/22 07:27:52;;;;;;;0.82;0.38;;;;;;;;;;5092984;28;20020;-66
2023/10/22 07:30:17;;;;;;;1.77;0.17;;;;;;;;;;5091703;28;20074;-66
2023/10/22 07:32:42;;;;;;;1.10;0.30;;;;;;;;;;5089902;28;20028;-66
2023/10/22 07:35:08;;;;;;;2.13;0.45;;;;;;;;;;5093102;28;20032;-66
2023/10/22 07:37:33;;;;;;;2.65;0.20;;;;;;;;;;5092708;28;20024;-67
2023/10/22 07:39:59;;;;;;;0.43;0.20;;;;;;;;;;5093166;28;20020;-66
2023/10/22 07:42:24;;;;;;;0.90;0.20;;;;;;;;;;5092849;28;20023;-67
2023/10/22 07:44:50;;;;;;;0.70;0.20;;;;;;;;;;5092646;28;20020;-66
2023/10/22 07:47:15;;;;;;;1.52;0.32;;;;;;;;;;5079279;28;20826;-66
2023/10/22 07:49:40;;;;;;;1.23;0.50;;;;;;;;;;5091905;28;20027;-66
2023/10/22 07:52:05;;;;;;;1.50;0.43;;;;;;;;;;5092170;28;20273;-66
2023/10/22 07:54:30;;;;;;;0.65;0.22;;;;;;;;;;5092638;28;20278;-66
2023/10/22 07:56:57;;;;;;;0.60;0.30;;;;;;;;;;5074338;28;20031;-66
2023/10/22 07:59:22;;;;;;;0.80;0.20;;;;;;;;;;5092417;28;20498;-66
2023/10/22 08:01:47;;;;;;;1.70;0.30;;;;;;;;;;5088953;28;20067;-66
2023/10/22 08:04:13;;;;;;;0.70;0.30;;;;;;;;;;5091691;28;20270;-66
2023/10/22 08:06:38;;;;;;;0.98;0.35;;;;;;;;;;5069279;28;20273;-66
2023/10/22 08:09:03;;;;;;;0.73;0.23;;;;;;;;;;5089413;28;20076;-66
2023/10/22 08:11:29;;;;;;;1.13;0.30;;;;;;;;;;5088968;28;20301;-67
2023/10/22 08:13:54;;;;;;;2.05;0.50;;;;;;;;;;5092350;28;20425;-66
2023/10/22 08:16:19;;;;;;;0.50;0.20;;;;;;;;;;5092153;28;20031;-66
2023/10/22 08:18:44;;;;;;;1.27;0.55;;;;;;;;;;5091040;28;20306;-66
2023/10/22 08:21:10;;;;;;;0.98;0.30;;;;;;;;;;5085279;28;20016;-66
2023/10/22 08:23:37;;;;;;;1.17;0.47;;;;;;;;;;5085245;28;20024;-66
2023/10/22 08:26:03;;;;;;;1.60;0.52;;;;;;;;;;5088424;28;20046;-66
2023/10/22 08:28:28;;;;;;;1.02;0.40;;;;;;;;;;5088950;28;20105;-66
2023/10/22 08:30:53;;;;;;;1.90;0.43;;;;;;;;;;5091623;28;20031;-66
2023/10/22 08:33:19;;;;;;;2.00;0.45;;;;;;;;;;5091048;28;20039;-66
2023/10/22 08:35:44;;;;;;;1.95;0.95;;;;;;;;;;5090780;28;20042;-66
2023/10/22 08:38:10;;;;;;;1.27;0.47;;;;;;;;;;5092074;28;20024;-66
2023/10/22 08:40:36;;;;;;;2.58;0.68;;;;;;;;;;5091159;28;20020;-66
2023/10/22 08:43:03;;;;;;;2.83;0.52;;;;;;;;;;5090095;28;20086;-66
2023/10/22 08:45:28;;;;;;;1.25;0.50;;;;;;;;;;5090130;28;20020;-66
2023/10/22 08:47:54;;;;;;;1.83;0.73;;;;;;;;;;5090662;28;20516;-66
2023/10/22 08:50:19;;;;;;;1.63;0.77;;;;;;;;;;5090982;28;20962;-67
2023/10/22 08:52:45;;;;;;;3.53;0.70;;;;;;;;;;5091428;28;20028;-66
2023/10/22 08:55:10;;;;;;;3.75;1.10;;;;;;;;;;5091161;28;20052;-66
2023/10/22 08:57:35;;;;;;;1.95;1.08;;;;;;;;;;5090531;28;20036;-66
2023/10/22 09:00:00;;;;;;;2.90;0.88;;;;;;;;;;5090484;28;20028;-66
2023/10/22 09:02:29;;;;;;;2.55;0.80;;;;;;;;;;5090248;28;20034;-66
2023/10/22 09:04:55;;;;;;;4.13;0.82;;;;;;;;;;5090074;28;20051;-66
2023/10/22 09:07:40;;;;;;;2.38;0.80;;;;;;;;;;5086439;28;20021;-66
2023/10/22 09:10:22;;;;;;;3.72;0.85;;;;;;;;;;5086558;28;20024;-64
2023/10/22 09:12:47;;;;;;;2.45;0.57;;;;;;;;;;5090977;28;20093;-66
2023/10/22 09:15:12;;;;;;;2.43;0.80;;;;;;;;;;5090142;28;20455;-66
2023/10/22 09:17:37;;;;;;;1.43;0.67;;;;;;;;;;5087180;28;20284;-67
2023/10/22 09:20:19;;;;;;;1.47;0.40;;;;;;;;;;5089720;28;20357;-65
2023/10/22 09:22:44;;;;;;;1.52;0.43;;;;;;;;;;5091129;28;20267;-63
2023/10/22 09:25:10;;;;;;;2.00;0.50;;;;;;;;;;5088582;28;20055;-64
2023/10/22 09:27:35;;;;;;;2.80;0.90;;;;;;;;;;5090859;28;20016;-64
2023/10/22 09:30:02;;;;;;;1.70;0.60;;;;;;;;;;5089321;28;20043;-63
2023/10/22 09:32:27;;;;;;;1.15;0.40;;;;;;;;;;5088932;28;20020;-65
2023/10/22 09:34:52;;;;;;;1.30;0.50;;;;;;;;;;5090257;28;20027;-64
2023/10/22 09:37:18;;;;;;;0.93;0.33;;;;;;;;;;5089929;28;20023;-65
2023/10/22 09:39:44;;;;;;;2.53;0.60;;;;;;;;;;5091082;28;20825;-64
2023/10/22 09:42:10;;;;;;;1.80;0.30;;;;;;;;;;5089620;28;20095;-65
2023/10/22 09:44:37;;;;;;;1.25;0.40;;;;;;;;;;5090394;28;20024;-65
2023/10/22 09:47:03;;;;;;;1.38;0.45;;;;;;;;;;5088131;28;20036;-64
2023/10/22 09:49:30;;;;;;;1.20;0.50;;;;;;;;;;5089586;28;20118;-64
2023/10/22 09:51:57;;;;;;;0.75;0.30;;;;;;;;;;5092448;28;20429;-63
2023/10/22 09:54:24;;;;;;;1.33;0.30;;;;;;;;;;5093892;28;20024;-65
2023/10/22 09:56:51;;;;;;;0.85;0.30;;;;;;;;;;5093964;28;20036;-64
2023/10/22 09:59:18;;;;;;;1.05;0.20;;;;;;;;;;5094012;28;20066;-65
2023/10/22 10:01:43;;;;;;;4.00;0.65;;;;;;;;;;5092565;28;20377;-63
2023/10/22 10:04:09;;;;;;;2.67;0.60;;;;;;;;;;5083700;28;20099;-64
2023/10/22 10:06:36;;;;;;;1.52;0.50;;;;;;;;;;5093314;28;20012;-64
2023/10/22 10:09:03;;;;;;;1.33;0.30;;;;;;;;;;5094085;28;20031;-66
2023/10/22 10:11:28;;;;;;;0.63;0.20;;;;;;;;;;5093517;28;20080;-66
2023/10/22 10:13:53;;;;;;;0.93;0.35;;;;;;;;;;5090317;28;20103;-66
2023/10/22 10:16:22;;;;;;;1.40;0.40;;;;;;;;;;5090449;28;20378;-65
2023/10/22 10:18:58;;;;;;;2.45;0.35;;;;;;;;;;5093149;28;20314;-64
2023/10/22 10:21:23;;;;;;;;;;;;;;;;;;5093266;28;20020;-65
2023/10/22 10:24:07;;;;;;;0.80;0.30;;;;;;;;;;5087207;28;19919;-64
2023/10/22 10:26:32;;;;;;;1.42;0.45;;;;;;;;;;5090013;28;20093;-65
2023/10/22 10:29:04;;;;;;;1.70;0.30;;;;;;;;;;5093997;28;20024;-64
2023/10/22 10:31:30;;;;;;;2.17;0.30;;;;;;;;;;5091666;28;20467;-64
2023/10/22 10:34:01;;;;;;;0.30;0.20;;;;;;;;;;5091945;28;20024;-64
2023/10/22 10:36:27;;;;;;;2.05;0.30;;;;;;;;;;5092957;28;20026;-65
2023/10/22 10:38:52;;;;;;;0.73;0.35;;;;;;;;;;5092173;28;20106;-65
2023/10/22 10:41:37;;;;;;;1.60;0.40;;;;;;;;;;5093223;28;20024;-66
2023/10/22 10:44:06;;;;;;;1.60;0.40;;;;;;;;;;5093139;28;20312;-66
2023/10/22 10:46:32;;;;;;;0.85;0.28;;;;;;;;;;5093058;28;20148;-65
2023/10/22 10:48:57;;;;;;;0.50;0.30;;;;;;;;;;5094233;28;20032;-65
2023/10/22 10:51:24;;;;;;;1.13;0.47;;;;;;;;;;5091697;28;20074;-64
2023/10/22 10:54:01;;;;;;;0.95;0.40;;;;;;;;;;5089983;28;20016;-65
2023/10/22 10:56:48;;;;;;;0.85;0.40;;;;;;;;;;5092750;28;20020;-68
2023/10/22 10:59:31;;;;;;;1.95;0.30;;;;;;;;;;5084155;28;20456;-64
2023/10/22 11:02:00;;;;;;;0.87;0.30;;;;;;;;;;5091946;28;20459;-65
2023/10/22 11:04:25;;;;;;;1.30;0.25;;;;;;;;;;5091396;28;20026;-65
2023/10/22 11:06:50;;;;;;;1.13;0.30;;;;;;;;;;5092890;28;20103;-65
2023/10/22 11:09:16;;;;;;;1.10;0.32;;;;;;;;;;5091237;28;20024;-66
2023/10/22 11:11:54;;;;;;;1.25;0.40;;;;;;;;;;5092754;28;20020;-66
2023/10/22 11:14:19;;;;;;;0.85;0.38;;;;;;;;;;5065170;28;20032;-65
2023/10/22 11:16:56;;;;;;;0.82;0.30;;;;;;;;;;5065513;28;20065;-66
2023/10/22 11:19:25;;;;;;;1.67;0.63;;;;;;;;;;5076174;28;20024;-65
2023/10/22 11:21:51;;;;;;;0.55;0.15;;;;;;;;;;5040999;28;20039;-66
2023/10/22 11:24:18;;;;;;;0.90;0.30;;;;;;;;;;5046755;28;20028;-65
2023/10/22 11:26:43;;;;;;;1.95;0.50;;;;;;;;;;5042541;28;20051;-62
2023/10/22 11:29:09;;;;;;;1.67;0.47;;;;;;;;;;5041720;28;20027;-62
2023/10/22 11:31:34;;;;;;;1.00;0.43;;;;;;;;;;5046465;28;20031;-65
2023/10/22 11:34:13;;;;;;;0.60;0.28;;;;;;;;;;5045094;28;20024;-66
2023/10/22 11:36:38;;;;;;;1.15;0.47;;;;;;;;;;5049867;28;20027;-65
2023/10/22 11:39:13;;;;;;;0.95;0.60;;;;;;;;;;5048940;28;20035;-66
2023/10/22 11:41:39;;;;;;;2.33;0.68;;;;;;;;;;5068702;28;20035;-65
2023/10/22 11:44:05;;;;;;;2.13;0.30;;;;;;;;;;5060611;28;20020;-67
2023/10/22 11:46:40;;;;;;;1.05;0.50;;;;;;;;;;5045422;28;20024;-65
2023/10/22 11:49:06;;;;;;;1.02;0.38;;;;;;;;;;5049361;28;20020;-65
2023/10/22 11:51:41;;;;;;;0.75;0.30;;;;;;;;;;5052330;28;20111;-65
2023/10/22 11:54:08;;;;;;;0.82;0.32;;;;;;;;;;5047667;28;20063;-65
2023/10/22 11:56:34;;;;;;;2.28;0.70;;;;;;;;;;5048318;28;20012;-65
2023/10/22 11:58:59;;;;;;;1.67;0.60;;;;;;;;;;5050025;28;20063;-65
2023/10/22 12:01:24;;;;;;;2.30;0.77;;;;;;;;;;5050575;28;20051;-65
2023/10/22 12:03:50;;;;;;;1.35;0.52;;;;;;;;;;5048775;28;20284;-65
2023/10/22 12:06:15;;;;;;;1.53;0.50;;;;;;;;;;5054421;28;20028;-65
2023/10/22 12:08:40;;;;;;;1.85;0.88;;;;;;;;;;5048601;28;20298;-64
2023/10/22 12:11:06;;;;;;;3.00;0.63;;;;;;;;;;5030896;28;20028;-67
2023/10/22 12:13:31;;;;;;;1.70;0.68;;;;;;;;;;5045309;28;20025;-65
2023/10/22 12:15:56;;;;;;;1.57;0.50;;;;;;;;;;5045445;28;20507;-65
2023/10/22 12:18:23;;;;;;;1.50;0.53;;;;;;;;;;5040000;28;20409;-65
2023/10/22 12:20:48;;;;;;;1.40;0.50;;;;;;;;;;5047474;28;20286;-65
2023/10/22 12:23:14;;;;;;;1.13;0.45;;;;;;;;;;5049414;28;20052;-68
2023/10/22 12:25:39;;;;;;;0.73;0.38;;;;;;;;;;5049461;28;20089;-65
2023/10/22 12:28:05;;;;;;;1.40;0.40;;;;;;;;;;5053426;28;20839;-68
2023/10/22 12:30:30;;;;;;;3.05;0.38;;;;;;;;;;5051894;28;20042;-68
2023/10/22 12:32:55;;;;;;;0.87;0.40;;;;;;;;;;5028161;28;20032;-67
2023/10/22 12:35:21;;;;;;;1.83;0.70;;;;;;;;;;5056915;28;20312;-67
2023/10/22 12:37:46;;;;;;;1.23;0.50;;;;;;;;;;5065895;28;20032;-63
2023/10/22 12:40:12;;;;;;;1.48;0.63;;;;;;;;;;5085252;28;20419;-63
2023/10/22 12:42:41;;;;;;;2.63;1.30;;;;;;;;;;5090498;28;20039;-64
2023/10/22 12:45:07;;;;;;;1.80;0.73;;;;;;;;;;5089906;28;20020;-64
2023/10/22 12:47:32;;;;;;;2.13;0.90;;;;;;;;;;5091847;28;20033;-64
2023/10/22 12:49:57;;;;;;;2.00;0.80;;;;;;;;;;5077951;28;20024;-64
2023/10/22 12:52:23;;;;;;;1.70;0.77;;;;;;;;;;5082092;28;20270;-64
2023/10/22 12:54:49;;;;;;;1.60;0.60;;;;;;;;;;5055991;28;20033;-64
2023/10/22 12:57:14;;;;;;;1.40;0.60;;;;;;;;;;5043232;28;20280;-64
2023/10/22 12:59:39;;;;;;;1.60;0.70;;;;;;;;;;5036055;28;20558;-64
2023/10/22 13:02:05;;;;;;;2.33;0.60;;;;;;;;;;5046174;28;20347;-64
2023/10/22 13:04:30;;;;;;;1.90;0.82;;;;;;;;;;5044205;28;20950;-64
2023/10/22 13:06:56;;;;;;;2.42;0.73;;;;;;;;;;5035391;28;20897;-62
2023/10/22 13:09:21;;;;;;;2.30;0.93;;;;;;;;;;5063807;28;20021;-66
2023/10/22 13:11:47;;;;;;;3.63;0.82;;;;;;;;;;5059571;28;20082;-63
2023/10/22 13:14:12;;;;;;;2.95;1.10;;;;;;;;;;5059232;28;20024;-63
2023/10/22 13:16:37;;;;;;;3.75;0.75;;;;;;;;;;5063663;28;20771;-64
2023/10/22 13:19:03;;;;;;;3.95;1.00;;;;;;;;;;5057040;28;20861;-65
2023/10/22 13:21:28;;;;;;;2.20;0.77;;;;;;;;;;5054856;28;20024;-66
2023/10/22 13:23:53;;;;;;;4.63;1.00;;;;;;;;;;5068138;28;20487;-66
2023/10/22 13:26:18;;;;;;;2.22;0.80;;;;;;;;;;5038228;28;20035;-64
2023/10/22 13:28:44;;;;;;;2.17;0.75;;;;;;;;;;5060781;28;20034;-67
2023/10/22 13:31:09;;;;;;;2.00;0.80;;;;;;;;;;5063300;28;20031;-66
2023/10/22 13:33:35;;;;;;;2.50;1.02;;;;;;;;;;5048506;28;20051;-66
2023/10/22 13:36:03;;;;;;;1.85;0.90;;;;;;;;;;5056852;28;20023;-66
2023/10/22 13:38:28;;;;;;;2.75;1.08;;;;;;;;;;5052030;28;20134;-66
2023/10/22 13:40:53;;;;;;;2.13;0.88;;;;;;;;;;5042356;28;20866;-67
2023/10/22 13:43:19;;;;;;;2.22;0.73;;;;;;;;;;5066360;28;20012;-66
2023/10/22 13:45:44;;;;;;;1.90;0.63;;;;;;;;;;5054795;28;20043;-67
2023/10/22 13:48:09;;;;;;;2.07;0.70;;;;;;;;;;5056332;28;21143;-64
2023/10/22 13:50:38;;;;;;;3.20;0.82;;;;;;;;;;5056343;28;21001;-65
2023/10/22 13:53:03;;;;;;;3.60;0.60;;;;;;;;;;5038610;28;20028;-65
2023/10/22 13:55:28;;;;;;;1.52;0.60;;;;;;;;;;5058918;28;20039;-65
2023/10/22 13:57:54;;;;;;;3.65;0.80;;;;;;;;;;5063952;28;20059;-65
2023/10/22 14:00:19;;;;;;;1.75;0.68;;;;;;;;;;5074708;28;20024;-65
2023/10/22 14:02:45;;;;;;;2.03;0.63;;;;;;;;;;5056874;28;20140;-65
2023/10/22 14:05:10;;;;;;;3.33;1.10;;;;;;;;;;5044682;28;20173;-65
2023/10/22 14:07:36;;;;;;;1.35;0.60;;;;;;;;;;5044000;28;20271;-65
2023/10/22 14:10:01;;;;;;;3.33;0.85;;;;;;;;;;5071326;28;20028;-65
2023/10/22 14:12:26;;;;;;;1.67;0.50;;;;;;;;;;5051593;28;20905;-64
2023/10/22 14:14:52;;;;;;;1.00;0.50;;;;;;;;;;5058515;28;20292;-68
2023/10/22 14:17:17;;;;;;;3.10;0.57;;;;;;;;;;5046297;28;20286;-68
2023/10/22 14:19:42;;;;;;;2.97;0.90;;;;;;;;;;5042063;28;21034;-65
2023/10/22 14:22:08;;;;;;;2.47;0.60;;;;;;;;;;5053449;28;20052;-64
2023/10/22 14:24:33;;;;;;;1.37;0.60;;;;;;;;;;5091869;28;20294;-64
2023/10/22 14:26:58;;;;;;;6.18;0.68;;;;;;;;;;5093129;28;20285;-64
2023/10/22 14:29:24;;;;;;;2.00;0.95;;;;;;;;;;5089846;28;20023;-64
2023/10/22 14:31:49;;;;;;;1.13;0.50;;;;;;;;;;5093266;28;20031;-66
2023/10/22 14:34:18;;;;;;;1.70;0.70;;;;;;;;;;5092163;28;20070;-62
2023/10/22 14:36:43;;;;;;;1.60;0.73;;;;;;;;;;5092879;28;20266;-61